createdAt,value
2024-02-18T16:57:59.093Z,17.33
2024-02-18T17:00:56.486Z,16.77
2024-02-18T17:03:43.661Z,16.77
2024-02-18T17:06:33.384Z,16.40
2024-02-18T17:09:19.718Z,16.92
2024-02-18T17:12:09.029Z,16.67
2024-02-18T17:14:56.498Z,16.25
2024-02-18T17:17:45.451Z,15.68
2024-02-18T17:20:32.274Z,15.85
2024-02-18T17:23:24.379Z,15.73
2024-02-18T17:26:12.115Z,16.23
2024-02-18T17:28:59.071Z,15.90
2024-02-18T17:32:16.908Z,15.88
2024-02-18T17:35:08.146Z,15.68
2024-02-18T17:37:55.648Z,16.10
2024-02-18T17:40:55.160Z,16.17
2024-02-18T17:43:46.425Z,15.80
2024-02-18T17:46:35.774Z,15.45
2024-02-18T17:49:26.629Z,15.43
2024-02-18T17:52:13.639Z,15.10
2024-02-18T17:55:00.532Z,14.85
2024-02-18T17:57:54.150Z,15.20
2024-02-18T18:00:43.118Z,14.50
2024-02-18T18:03:30.602Z,14.85
2024-02-18T18:06:18.388Z,14.57
2024-02-18T18:09:04.609Z,14.68
2024-02-18T18:11:51.370Z,14.70
2024-02-18T18:14:37.702Z,15.18
2024-02-18T18:17:26.294Z,14.40
2024-02-18T18:20:13.331Z,15.48
2024-02-18T18:23:01.210Z,15.20
2024-02-18T18:26:00.378Z,15.02
2024-02-18T18:28:54.202Z,15.20
2024-02-18T18:31:44.654Z,15.45
2024-02-18T18:34:33.044Z,14.82
2024-02-18T18:37:19.711Z,15.70
2024-02-18T18:40:09.973Z,16.13
2024-02-18T18:42:56.542Z,14.38
2024-02-18T18:45:44.281Z,15.07
2024-02-18T18:48:32.740Z,14.30
2024-02-18T18:51:20.084Z,14.82
2024-02-18T18:54:06.771Z,15.98
2024-02-18T18:56:54.976Z,15.15
2024-02-18T18:59:41.149Z,15.00
2024-02-18T19:02:27.957Z,14.70
2024-02-18T19:05:16.327Z,15.52
2024-02-18T19:08:02.870Z,15.27
2024-02-18T19:10:49.567Z,15.38
2024-02-18T19:13:42.505Z,14.98
2024-02-18T19:16:36.374Z,15.02
2024-02-18T19:19:24.566Z,15.82
2024-02-18T19:22:16.312Z,15.20
2024-02-18T19:25:04.317Z,15.18
2024-02-18T19:27:50.464Z,15.45
2024-02-18T19:30:37.009Z,15.00
2024-02-18T19:33:28.915Z,15.65
2024-02-18T19:36:17.082Z,15.20
2024-02-18T19:39:05.462Z,15.00
2024-02-18T19:41:54.190Z,15.50
2024-02-18T19:44:42.617Z,15.10
2024-02-18T19:47:29.777Z,15.57
2024-02-18T19:50:16.007Z,16.42
2024-02-18T19:53:03.056Z,16.05
2024-02-18T19:55:49.871Z,16.30
2024-02-18T19:58:39.180Z,16.15
2024-02-18T20:01:25.885Z,16.38
2024-02-18T20:04:14.645Z,16.55
2024-02-18T20:07:01.585Z,17.35
2024-02-18T20:09:49.818Z,17.35
2024-02-18T20:12:37.303Z,17.80
2024-02-18T20:15:24.171Z,17.65
2024-02-18T20:18:10.450Z,17.27
2024-02-18T20:21:01.681Z,17.95
2024-02-18T20:23:47.903Z,17.35
2024-02-18T20:26:40.107Z,17.70
2024-02-18T20:29:26.684Z,17.98
2024-02-18T20:32:14.471Z,17.50
2024-02-18T20:35:00.879Z,18.10
2024-02-18T20:37:52.857Z,18.98
2024-02-18T20:40:40.328Z,18.77
2024-02-18T20:43:28.116Z,18.35
2024-02-18T20:46:17.954Z,18.58
2024-02-18T20:49:07.870Z,18.42
2024-02-18T20:51:54.743Z,17.52
2024-02-18T20:54:42.379Z,18.65
2024-02-18T20:57:33.483Z,18.45
2024-02-18T21:00:24.478Z,18.30
2024-02-18T21:03:11.015Z,18.65
2024-02-18T21:05:59.016Z,19.35
2024-02-18T21:08:46.521Z,19.02
2024-02-18T21:11:32.809Z,19.67
2024-02-18T21:14:21.492Z,20.40
2024-02-18T21:17:07.809Z,21.02
2024-02-18T21:19:54.064Z,20.67
2024-02-18T21:22:40.456Z,20.65
2024-02-18T21:25:29.429Z,20.67
2024-02-18T21:28:18.419Z,22.02
2024-02-18T21:31:05.037Z,21.85
2024-02-18T21:33:52.240Z,22.67
2024-02-18T21:39:48.686Z,22.95
2024-02-18T21:42:35.820Z,21.50
2024-02-18T21:45:22.740Z,21.50
2024-02-18T21:48:09.471Z,20.70
2024-02-18T21:50:56.485Z,19.50
2024-02-18T21:53:44.831Z,19.05
2024-02-18T21:56:32.049Z,19.60
